Time;durP1;ratioP1;P1;durP2;ratioP2;P2;SDS_P1;SDS_P2;PMS_P1;PMS_P2;Temp;Humidity;BMP_temperature;BMP_pressure;BME280_temperature;BME280_humidity;BME280_pressure;Samples;Min_cycle;Max_cycle;Signal;HPM_P1;HPM_P2
2022/07/12 20:30:13;;;;;;;1.77;0.87;;;19.40;99.90;;;;;;5069998;28;20278;-79
2022/07/12 20:35:25;;;;;;;1.80;0.80;;;19.40;99.90;;;;;;5069918;28;20201;-76
2022/07/12 20:37:52;;;;;;;2.07;0.70;;;19.40;99.90;;;;;;5102293;28;20299;-75
2022/07/12 20:40:19;;;;;;;1.60;0.97;;;19.40;99.90;;;;;;5068478;28;20198;-76
2022/07/12 20:42:47;;;;;;;4.23;0.77;;;19.40;99.90;;;;;;5068551;28;20187;-74
2022/07/12 20:45:14;;;;;;;1.13;0.70;;;19.40;99.90;;;;;;5102248;28;20206;-78
2022/07/12 20:47:41;;;;;;;1.10;0.97;;;19.40;99.90;;;;;;5068443;28;20240;-78
2022/07/12 20:50:08;;;;;;;2.47;1.10;;;19.30;99.90;;;;;;5068335;28;20593;-75
2022/07/12 20:52:35;;;;;;;2.73;1.00;;;19.30;99.90;;;;;;5068352;28;20292;-74
2022/07/12 20:55:03;;;;;;;3.30;0.73;;;19.20;99.90;;;;;;5068045;28;20206;-79
2022/07/12 20:57:31;;;;;;;1.70;0.77;;;19.20;99.90;;;;;;5068226;28;20195;-75
2022/07/12 20:59:58;;;;;;;1.77;0.87;;;19.10;99.90;;;;;;5069147;28;20194;-76
2022/07/12 21:02:25;;;;;;;1.50;0.80;;;19.10;99.90;;;;;;5068080;28;20221;-77
2022/07/12 21:04:52;;;;;;;4.80;0.90;;;19.00;99.90;;;;;;5068420;28;20209;-82
2022/07/12 21:07:19;;;;;;;1.93;0.90;;;18.90;99.90;;;;;;5061226;28;20204;-81
2022/07/12 21:09:46;;;;;;;1.33;0.87;;;18.80;99.90;;;;;;5058457;28;20217;-81
2022/07/12 21:12:23;;;;;;;2.07;0.83;;;18.70;99.90;;;;;;5060740;28;20194;-82
2022/07/12 21:14:50;;;;;;;3.33;1.00;;;18.60;99.90;;;;;;5067873;28;20263;-81
2022/07/12 21:17:18;;;;;;;2.63;1.10;;;18.60;99.90;;;;;;5064438;28;20240;-85
2022/07/12 21:19:45;;;;;;;2.53;0.97;;;18.50;99.90;;;;;;5065103;28;20218;-81
2022/07/12 21:22:12;;;;;;;2.83;1.10;;;18.50;99.90;;;;;;5067659;28;20289;-86
2022/07/12 21:24:39;;;;;;;1.10;0.83;;;18.60;99.90;;;;;;5067583;28;20186;-85
2022/07/12 21:27:08;;;;;;;3.97;1.00;;;18.70;99.90;;;;;;5056716;28;20672;-87
2022/07/12 21:29:36;;;;;;;3.60;0.90;;;18.60;99.90;;;;;;5042788;28;20262;-85
2022/07/12 21:32:03;;;;;;;3.47;0.93;;;18.60;99.90;;;;;;5035800;28;20172;-82
2022/07/12 21:34:30;;;;;;;3.70;1.00;;;18.70;99.90;;;;;;5034699;28;20245;-82
2022/07/12 21:36:57;;;;;;;1.67;0.90;;;18.70;99.90;;;;;;5034688;28;20291;-85
2022/07/12 21:39:24;;;;;;;2.17;0.80;;;18.70;99.90;;;;;;5034978;28;20310;-82
2022/07/12 21:41:51;;;;;;;1.20;0.80;;;18.70;99.90;;;;;;5034674;28;20231;-81
2022/07/12 21:44:18;;;;;;;4.83;1.03;;;18.80;99.90;;;;;;5034588;28;20215;-79
2022/07/12 21:46:45;;;;;;;2.80;0.97;;;18.80;99.90;;;;;;5033594;28;20234;-76
2022/07/12 21:49:12;;;;;;;4.83;1.10;;;18.70;99.90;;;;;;5034272;28;20246;-77
2022/07/12 21:51:39;;;;;;;1.37;0.80;;;18.80;99.90;;;;;;5034302;28;20298;-79
2022/07/12 21:54:06;;;;;;;2.07;0.80;;;18.70;99.90;;;;;;5034351;28;20290;-80
2022/07/12 21:56:33;;;;;;;5.10;1.03;;;18.70;99.90;;;;;;5034672;28;20230;-76
2022/07/12 21:59:04;;;;;;;2.40;0.77;;;18.70;99.90;;;;;;5034279;28;20624;-73
2022/07/12 22:01:31;;;;;;;1.63;0.73;;;18.70;99.90;;;;;;5034073;28;20642;-78
2022/07/12 22:03:58;;;;;;;1.27;1.03;;;18.60;99.90;;;;;;5067585;28;20574;-75
2022/07/12 22:06:25;;;;;;;3.80;1.00;;;18.50;99.90;;;;;;5034407;28;20291;-72
2022/07/12 22:08:52;;;;;;;2.60;0.90;;;18.50;99.90;;;;;;5035370;28;20653;-74
2022/07/12 22:11:19;;;;;;;1.77;1.00;;;18.40;99.90;;;;;;5034385;28;20288;-74
2022/07/12 22:13:46;;;;;;;1.70;0.90;;;18.40;99.90;;;;;;5035784;28;20192;-78
2022/07/12 22:16:13;;;;;;;1.30;0.70;;;18.40;99.90;;;;;;5035485;28;20246;-75
2022/07/12 22:18:40;;;;;;;3.40;1.27;;;18.40;99.90;;;;;;5034392;28;20269;-75
2022/07/12 22:21:07;;;;;;;2.47;0.90;;;18.40;99.90;;;;;;5033839;28;20295;-74
2022/07/12 22:23:34;;;;;;;1.63;0.90;;;18.40;99.90;;;;;;5034276;28;20286;-75
2022/07/12 22:26:01;;;;;;;3.03;1.23;;;18.40;99.90;;;;;;5033771;28;20219;-76
2022/07/12 22:28:28;;;;;;;1.30;0.83;;;18.40;99.90;;;;;;5033680;28;20259;-76
2022/07/12 22:30:57;;;;;;;1.57;1.10;;;18.30;99.90;;;;;;5035289;28;20238;-74
2022/07/12 22:33:23;;;;;;;1.80;0.87;;;18.40;99.90;;;;;;5035286;28;20186;-75
2022/07/12 22:35:50;;;;;;;1.77;1.00;;;18.40;99.90;;;;;;5033687;28;20195;-77
2022/07/12 22:38:18;;;;;;;3.60;0.90;;;18.30;99.90;;;;;;5033836;28;20219;-74
2022/07/12 22:40:44;;;;;;;1.47;0.93;;;18.30;99.90;;;;;;5066534;28;20204;-73
2022/07/12 22:43:11;;;;;;;2.20;0.90;;;18.30;99.90;;;;;;5032810;28;20652;-77
2022/07/12 22:45:38;;;;;;;3.50;0.80;;;18.30;99.90;;;;;;5033403;28;20299;-77
2022/07/12 22:48:05;;;;;;;2.13;1.00;;;18.30;99.90;;;;;;5035031;28;20198;-77
2022/07/12 22:53:18;;;;;;;0.83;0.80;;;18.20;99.90;;;;;;5033473;28;20230;-74
2022/07/12 22:55:44;;;;;;;1.53;0.90;;;18.20;99.90;;;;;;5033164;28;20286;-73
2022/07/12 22:58:11;;;;;;;1.17;0.90;;;18.20;99.90;;;;;;5033105;28;20196;-71
2022/07/12 23:00:38;;;;;;;3.97;0.80;;;18.20;99.90;;;;;;5033041;28;20199;-72
2022/07/12 23:03:05;;;;;;;1.20;0.97;;;18.20;99.90;;;;;;5033066;28;20293;-72
2022/07/12 23:05:32;;;;;;;1.30;0.90;;;18.20;99.90;;;;;;5032850;28;20294;-73
2022/07/12 23:07:59;;;;;;;1.77;0.83;;;18.20;99.90;;;;;;5033027;28;20619;-72
2022/07/12 23:10:26;;;;;;;2.10;1.07;;;18.20;99.90;;;;;;5034458;28;20729;-72
2022/07/12 23:12:52;;;;;;;3.30;0.93;;;18.20;99.90;;;;;;5033297;28;20560;-72
2022/07/12 23:15:20;;;;;;;2.17;1.13;;;18.10;99.90;;;;;;5066448;28;20222;-72
2022/07/12 23:17:47;;;;;;;1.70;1.10;;;18.10;99.90;;;;;;5034410;28;20187;-73
2022/07/12 23:20:14;;;;;;;3.20;1.10;;;18.10;99.90;;;;;;5032573;28;20238;-73
2022/07/12 23:22:41;;;;;;;4.03;0.87;;;18.10;99.90;;;;;;5032669;28;20295;-74
2022/07/12 23:25:08;;;;;;;1.47;1.00;;;18.10;99.90;;;;;;5049368;28;20210;-72
2022/07/12 23:27:35;;;;;;;5.40;0.93;;;18.10;99.90;;;;;;5032471;28;20892;-71
2022/07/12 23:30:02;;;;;;;2.03;0.93;;;18.10;99.90;;;;;;5032480;28;20275;-72
2022/07/12 23:32:29;;;;;;;1.57;0.80;;;18.10;99.90;;;;;;5034191;28;20202;-72
2022/07/12 23:34:56;;;;;;;1.27;0.87;;;18.10;99.90;;;;;;5034156;28;20223;-73
2022/07/12 23:37:26;;;;;;;2.27;1.03;;;18.10;99.90;;;;;;5032616;28;20653;-72
2022/07/12 23:39:52;;;;;;;2.70;0.93;;;18.20;99.90;;;;;;5016311;28;20311;-73
2022/07/12 23:42:19;;;;;;;2.53;1.20;;;18.10;99.90;;;;;;5032617;28;20294;-73
2022/07/12 23:44:46;;;;;;;2.40;1.00;;;18.10;99.90;;;;;;5032435;28;20278;-71
2022/07/12 23:47:13;;;;;;;1.60;1.00;;;18.10;99.90;;;;;;5032546;28;20199;-72
2022/07/12 23:49:40;;;;;;;3.27;1.00;;;18.10;99.90;;;;;;5032222;28;20633;-71
2022/07/12 23:52:07;;;;;;;2.23;1.10;;;18.10;99.90;;;;;;5032228;28;20203;-71
2022/07/12 23:54:34;;;;;;;1.47;1.00;;;18.10;99.90;;;;;;5065701;28;20283;-71
2022/07/12 23:57:01;;;;;;;1.90;1.10;;;18.10;99.90;;;;;;5033886;28;20201;-71
2022/07/12 23:59:27;;;;;;;3.63;1.10;;;18.10;99.90;;;;;;5065324;28;20652;-71
